Time;durP1;ratioP1;P1;durP2;ratioP2;P2;SDS_P1;SDS_P2;PMS_P1;PMS_P2;Temp;Humidity;BMP_temperature;BMP_pressure;BME280_temperature;BME280_humidity;BME280_pressure;Samples;Min_cycle;Max_cycle;Signal;HPM_P1;HPM_P2
2021/01/26 00:01:02;;;;;;;10.20;5.47;;;1.80;99.90;;;;;;5082442;28;20219;-71
2021/01/26 00:03:28;;;;;;;7.60;4.43;;;1.80;99.90;;;;;;5074962;28;20247;-69
2021/01/26 00:05:53;;;;;;;7.03;4.93;;;1.90;99.90;;;;;;5105755;28;20469;-69
2021/01/26 00:08:20;;;;;;;10.17;5.60;;;1.80;99.90;;;;;;5091444;28;20221;-69
2021/01/26 00:10:46;;;;;;;15.17;7.03;;;1.90;99.90;;;;;;5089252;27;20707;-69
2021/01/26 00:13:13;;;;;;;8.27;5.20;;;1.80;99.90;;;;;;5089091;28;20523;-70
2021/01/26 00:15:39;;;;;;;9.03;6.53;;;1.70;99.90;;;;;;5102031;27;20456;-71
2021/01/26 00:18:05;;;;;;;15.80;7.30;;;1.70;99.90;;;;;;5101448;28;20809;-71
2021/01/26 00:20:31;;;;;;;10.60;5.40;;;1.70;99.90;;;;;;5106879;28;20217;-69
2021/01/26 00:22:57;;;;;;;8.97;5.30;;;1.70;99.90;;;;;;5086446;27;20440;-69
2021/01/26 00:25:29;;;;;;;8.73;5.30;;;1.70;99.90;;;;;;5091939;28;20548;-69
2021/01/26 00:27:56;;;;;;;10.70;5.53;;;1.70;99.90;;;;;;5104842;27;20519;-70
2021/01/26 00:30:28;;;;;;;7.10;5.10;;;1.60;99.90;;;;;;5107368;28;20463;-70
2021/01/26 00:32:55;;;;;;;10.60;6.67;;;1.60;99.90;;;;;;5101073;28;20505;-70
2021/01/26 00:35:22;;;;;;;7.80;5.20;;;1.60;99.90;;;;;;5089282;28;20537;-69
2021/01/26 00:37:49;;;;;;;12.50;5.30;;;1.70;99.90;;;;;;5071848;28;20464;-70
2021/01/26 00:40:16;;;;;;;9.30;5.00;;;1.70;99.90;;;;;;5090956;28;20468;-69
2021/01/26 00:42:42;;;;;;;8.43;4.53;;;1.70;99.90;;;;;;5112924;27;20451;-69
2021/01/26 00:45:09;;;;;;;9.53;5.37;;;1.70;99.90;;;;;;5096359;28;20444;-69
2021/01/26 00:47:35;;;;;;;8.23;6.17;;;1.60;99.90;;;;;;5095947;27;20448;-71
2021/01/26 00:50:01;;;;;;;10.97;4.90;;;1.70;99.90;;;;;;5099602;28;20450;-71
2021/01/26 00:52:27;;;;;;;9.40;4.77;;;1.70;99.90;;;;;;5095747;28;20734;-71
2021/01/26 00:55:01;;;;;;;8.23;4.73;;;1.70;99.90;;;;;;5087711;28;20523;-71
2021/01/26 00:57:27;;;;;;;6.83;4.13;;;1.70;99.90;;;;;;5100256;28;20480;-72
2021/01/26 00:59:53;;;;;;;10.17;5.57;;;1.60;99.90;;;;;;5061051;28;20476;-72
2021/01/26 01:02:19;;;;;;;12.90;5.53;;;1.60;99.90;;;;;;5080446;28;20230;-72
2021/01/26 01:04:46;;;;;;;5.47;4.30;;;1.60;99.90;;;;;;5062744;28;20234;-71
2021/01/26 01:07:12;;;;;;;7.33;4.67;;;1.50;99.90;;;;;;5098038;28;20227;-73
2021/01/26 01:09:38;;;;;;;9.67;5.13;;;1.50;99.90;;;;;;5081697;27;20558;-70
2021/01/26 01:12:05;;;;;;;7.83;4.50;;;1.40;99.90;;;;;;5098539;28;20530;-71
2021/01/26 01:14:31;;;;;;;8.80;4.70;;;1.40;99.90;;;;;;5116804;28;20229;-70
2021/01/26 01:16:57;;;;;;;11.03;4.03;;;1.40;99.90;;;;;;5101248;28;20446;-71
2021/01/26 01:19:24;;;;;;;10.20;6.00;;;1.40;99.90;;;;;;5066077;28;20842;-69
2021/01/26 01:21:50;;;;;;;10.00;4.10;;;1.40;99.90;;;;;;5092011;28;20229;-71
2021/01/26 01:24:15;;;;;;;6.60;4.20;;;1.30;99.90;;;;;;5117171;28;20516;-72
2021/01/26 01:26:42;;;;;;;8.90;4.80;;;1.30;99.90;;;;;;5095579;28;20231;-71
2021/01/26 01:29:10;;;;;;;7.87;4.60;;;1.30;99.90;;;;;;5098514;28;20219;-72
2021/01/26 01:31:36;;;;;;;8.03;4.80;;;1.30;99.90;;;;;;5098418;27;20476;-71
2021/01/26 01:34:03;;;;;;;7.30;4.90;;;1.30;99.90;;;;;;5098614;28;20444;-72
2021/01/26 01:36:29;;;;;;;11.53;6.07;;;1.30;99.90;;;;;;5110297;28;20453;-70
2021/01/26 01:38:54;;;;;;;13.53;5.80;;;1.30;99.90;;;;;;5063757;28;20445;-71
2021/01/26 01:41:20;;;;;;;6.23;3.70;;;1.30;99.90;;;;;;5079494;28;20215;-73
2021/01/26 01:43:52;;;;;;;7.03;3.67;;;1.30;99.90;;;;;;5094673;28;20218;-71
2021/01/26 01:46:22;;;;;;;9.27;4.67;;;1.30;99.90;;;;;;5082501;28;20710;-70
2021/01/26 01:48:48;;;;;;;7.40;5.00;;;1.30;99.90;;;;;;5100140;28;20461;-72
2021/01/26 01:51:21;;;;;;;8.43;5.73;;;1.20;99.90;;;;;;5098116;28;20519;-72
2021/01/26 01:53:54;;;;;;;10.70;5.67;;;1.20;99.90;;;;;;5094722;28;20480;-71
2021/01/26 01:56:45;;;;;;;7.30;4.43;;;1.20;99.90;;;;;;5105150;28;20460;-72
2021/01/26 01:59:18;;;;;;;8.17;3.83;;;1.20;99.90;;;;;;5096352;28;20521;-70
2021/01/26 02:01:46;;;;;;;8.80;5.00;;;1.20;99.90;;;;;;5097261;28;20453;-71
2021/01/26 02:04:15;;;;;;;8.20;4.13;;;1.20;99.90;;;;;;5100059;28;21036;-72
2021/01/26 02:06:43;;;;;;;11.50;5.07;;;1.20;99.90;;;;;;5090588;28;20461;-72
2021/01/26 02:09:30;;;;;;;11.03;5.63;;;1.20;99.90;;;;;;5099680;28;20452;-71
2021/01/26 02:11:56;;;;;;;7.50;4.60;;;1.20;99.90;;;;;;5099701;27;20445;-72
2021/01/26 02:14:23;;;;;;;12.23;5.17;;;1.20;99.90;;;;;;5116163;28;20456;-71
2021/01/26 02:16:58;;;;;;;8.00;4.53;;;1.20;99.90;;;;;;5062435;28;20532;-70
2021/01/26 02:19:43;;;;;;;10.50;4.97;;;1.10;99.90;;;;;;5115065;28;20471;-71
2021/01/26 02:22:33;;;;;;;6.30;3.83;;;1.20;99.90;;;;;;5113036;28;20444;-71
2021/01/26 02:25:36;;;;;;;7.37;3.50;;;1.10;99.90;;;;;;5098999;28;20451;-72
2021/01/26 02:28:24;;;;;;;9.03;4.60;;;1.10;99.90;;;;;;5111187;28;20879;-72
2021/01/26 02:31:20;;;;;;;11.23;4.30;;;1.10;99.90;;;;;;5114488;28;20539;-72
2021/01/26 02:34:23;;;;;;;7.70;4.53;;;1.10;99.90;;;;;;5094285;28;20453;-72
2021/01/26 02:36:57;;;;;;;11.63;5.17;;;1.10;99.90;;;;;;5094847;28;20541;-70
2021/01/26 02:39:40;;;;;;;8.93;4.90;;;1.10;99.90;;;;;;5107175;28;20447;-71
2021/01/26 02:42:45;;;;;;;6.90;3.30;;;1.10;99.90;;;;;;5114845;28;20452;-72
2021/01/26 02:45:30;;;;;;;7.23;4.13;;;1.20;99.90;;;;;;5098350;28;20452;-70
2021/01/26 02:48:16;;;;;;;8.93;4.70;;;1.20;99.90;;;;;;5097836;28;20452;-70
2021/01/26 02:50:56;;;;;;;11.57;4.87;;;1.20;99.90;;;;;;5110511;27;20448;-71
2021/01/26 02:53:34;;;;;;;9.00;4.97;;;1.20;99.90;;;;;;5115409;28;20562;-70
2021/01/26 02:56:41;;;;;;;11.30;5.27;;;1.20;99.90;;;;;;5114144;28;20444;-71
2021/01/26 02:59:45;;;;;;;8.63;3.87;;;1.20;99.90;;;;;;5115009;28;20440;-73
2021/01/26 03:02:31;;;;;;;7.37;4.20;;;1.20;99.90;;;;;;5106107;28;20448;-71
2021/01/26 03:05:20;;;;;;;6.63;3.47;;;1.20;99.90;;;;;;5085868;28;20972;-71
2021/01/26 03:07:56;;;;;;;5.97;4.03;;;1.20;99.90;;;;;;5097292;27;20464;-70
2021/01/26 03:10:27;;;;;;;7.27;3.80;;;1.20;99.90;;;;;;5097075;28;20479;-72
2021/01/26 03:13:00;;;;;;;11.63;4.40;;;1.20;99.90;;;;;;5099253;28;20505;-71
2021/01/26 03:15:41;;;;;;;6.57;5.50;;;1.30;99.90;;;;;;5115251;28;20452;-71
2021/01/26 03:18:11;;;;;;;6.87;4.60;;;1.20;99.90;;;;;;5114788;28;20444;-70
2021/01/26 03:20:41;;;;;;;8.60;5.30;;;1.20;99.90;;;;;;5097134;28;20467;-71
2021/01/26 03:23:36;;;;;;;10.60;4.87;;;1.20;99.90;;;;;;5098006;28;20459;-71
2021/01/26 03:26:03;;;;;;;9.00;5.17;;;1.20;99.90;;;;;;5089873;28;20814;-70
2021/01/26 03:28:30;;;;;;;12.93;5.47;;;1.20;99.90;;;;;;5097717;28;20540;-72
2021/01/26 03:30:59;;;;;;;13.13;5.23;;;1.20;99.90;;;;;;5113707;27;20497;-70
2021/01/26 03:33:31;;;;;;;8.67;5.40;;;1.20;99.90;;;;;;5114599;28;20472;-70
2021/01/26 03:35:57;;;;;;;10.00;5.63;;;1.20;99.90;;;;;;5114795;27;20524;-71
2021/01/26 03:38:29;;;;;;;9.50;5.10;;;1.20;99.90;;;;;;5098039;28;20467;-70
2021/01/26 03:40:57;;;;;;;12.30;6.60;;;1.20;99.90;;;;;;5095603;28;20464;-69
2021/01/26 03:43:23;;;;;;;14.17;6.63;;;1.20;99.90;;;;;;5115074;28;20466;-71
2021/01/26 03:46:12;;;;;;;7.67;4.63;;;1.20;99.90;;;;;;5113903;27;20475;-70
2021/01/26 03:48:59;;;;;;;10.77;5.90;;;1.20;99.90;;;;;;5068950;27;20501;-72
2021/01/26 03:51:32;;;;;;;18.03;4.70;;;1.20;99.90;;;;;;5113568;28;20452;-68
2021/01/26 03:54:22;;;;;;;13.87;6.20;;;1.20;99.90;;;;;;5097656;28;20466;-71
2021/01/26 03:57:04;;;;;;;9.00;4.03;;;1.20;99.90;;;;;;5115781;27;20449;-71
2021/01/26 03:59:52;;;;;;;6.80;4.70;;;1.20;99.90;;;;;;5087935;28;20884;-69
2021/01/26 04:02:26;;;;;;;8.90;4.90;;;1.20;99.90;;;;;;5114287;28;20440;-71
2021/01/26 04:05:01;;;;;;;13.90;4.90;;;1.30;99.90;;;;;;5113180;27;20976;-70
2021/01/26 04:07:34;;;;;;;9.33;4.47;;;1.30;99.90;;;;;;5114354;28;20528;-71
2021/01/26 04:10:11;;;;;;;9.10;5.03;;;1.30;99.90;;;;;;5093437;28;20453;-69
2021/01/26 04:12:41;;;;;;;7.30;4.93;;;1.30;99.90;;;;;;5110669;28;20457;-72
2021/01/26 04:15:18;;;;;;;9.20;5.10;;;1.30;99.90;;;;;;5097653;28;20456;-72
2021/01/26 04:17:49;;;;;;;11.17;5.30;;;1.30;99.90;;;;;;5114023;27;20999;-71
2021/01/26 04:20:29;;;;;;;10.37;5.90;;;1.30;99.90;;;;;;5097207;28;20467;-72
2021/01/26 04:22:59;;;;;;;6.60;4.23;;;1.30;99.90;;;;;;5113510;28;20448;-70
2021/01/26 04:25:27;;;;;;;9.60;4.30;;;1.20;99.90;;;;;;5096840;28;20465;-70
2021/01/26 04:27:54;;;;;;;14.83;4.50;;;1.20;99.90;;;;;;5108919;27;20532;-71
2021/01/26 04:30:20;;;;;;;10.70;4.73;;;1.20;99.90;;;;;;5080848;28;20470;-72
2021/01/26 04:32:54;;;;;;;9.03;4.30;;;1.20;99.90;;;;;;5097129;28;20551;-71
2021/01/26 04:35:20;;;;;;;14.83;5.10;;;1.20;99.90;;;;;;5112525;28;20448;-72
2021/01/26 04:37:45;;;;;;;10.07;4.63;;;1.20;99.90;;;;;;5063588;27;20505;-73
2021/01/26 04:40:12;;;;;;;6.73;3.97;;;1.20;99.90;;;;;;5063357;28;20301;-71
2021/01/26 04:42:40;;;;;;;7.20;4.40;;;1.20;99.90;;;;;;5095934;27;20214;-71
2021/01/26 04:45:28;;;;;;;14.23;5.07;;;1.30;99.90;;;;;;5114329;28;20581;-71
2021/01/26 04:48:29;;;;;;;7.13;4.00;;;1.30;99.90;;;;;;5097359;28;20484;-70
2021/01/26 04:51:05;;;;;;;6.73;4.03;;;1.30;99.90;;;;;;5094642;28;20460;-71
2021/01/26 04:54:16;;;;;;;6.90;3.20;;;1.30;99.90;;;;;;5105647;28;20859;-71
2021/01/26 04:57:20;;;;;;;6.40;3.13;;;1.30;99.90;;;;;;5113814;27;20456;-70
2021/01/26 05:00:07;;;;;;;5.73;3.20;;;1.30;99.90;;;;;;5087741;27;20479;-71
2021/01/26 05:02:44;;;;;;;9.10;4.20;;;1.30;99.90;;;;;;5088365;28;20478;-71
2021/01/26 05:05:16;;;;;;;5.57;3.97;;;1.30;99.90;;;;;;5090504;28;20451;-69
2021/01/26 05:07:48;;;;;;;4.80;3.30;;;1.30;99.90;;;;;;5108807;27;20484;-70
2021/01/26 05:10:26;;;;;;;4.27;2.90;;;1.30;99.90;;;;;;5109363;28;20456;-71
2021/01/26 05:12:59;;;;;;;6.13;4.00;;;1.30;99.90;;;;;;5109146;27;21090;-70
2021/01/26 05:15:29;;;;;;;5.20;3.60;;;1.30;99.90;;;;;;5089651;28;20502;-69
2021/01/26 05:18:13;;;;;;;5.33;2.90;;;1.30;99.90;;;;;;5088549;28;20441;-69
2021/01/26 05:20:44;;;;;;;7.50;4.43;;;1.30;99.90;;;;;;5091345;28;20463;-69
2021/01/26 05:23:20;;;;;;;8.00;4.37;;;1.30;99.90;;;;;;5088570;28;20939;-70
2021/01/26 05:25:47;;;;;;;7.37;4.30;;;1.40;99.90;;;;;;5074505;27;20475;-69
2021/01/26 05:28:13;;;;;;;10.97;5.90;;;1.40;99.90;;;;;;5071750;28;20449;-70
2021/01/26 05:30:39;;;;;;;9.63;5.20;;;1.40;99.90;;;;;;5058146;28;21026;-69
2021/01/26 05:33:14;;;;;;;6.53;4.80;;;1.40;99.90;;;;;;5059072;28;20605;-70
2021/01/26 05:35:44;;;;;;;6.73;4.50;;;1.40;99.90;;;;;;5086389;28;20274;-70
2021/01/26 05:38:10;;;;;;;7.40;5.50;;;1.40;99.90;;;;;;5112736;28;20449;-69
2021/01/26 05:40:39;;;;;;;5.97;4.50;;;1.40;99.90;;;;;;5091355;28;20856;-70
2021/01/26 05:43:09;;;;;;;7.87;4.63;;;1.40;99.90;;;;;;5095664;28;20448;-69
2021/01/26 05:45:39;;;;;;;10.93;5.77;;;1.40;99.90;;;;;;5095731;27;20846;-69
2021/01/26 05:48:18;;;;;;;6.13;4.20;;;1.40;99.90;;;;;;5095516;28;20448;-70
2021/01/26 05:50:45;;;;;;;2.83;2.40;;;1.40;99.90;;;;;;5111623;28;20432;-69
2021/01/26 05:53:32;;;;;;;11.40;3.20;;;1.50;99.90;;;;;;5112071;28;20436;-70
2021/01/26 05:56:15;;;;;;;3.07;2.27;;;1.50;99.90;;;;;;5113314;27;20523;-71
2021/01/26 05:58:43;;;;;;;4.77;2.97;;;1.50;99.90;;;;;;5074098;28;20449;-69
2021/01/26 06:01:13;;;;;;;2.87;2.60;;;1.50;99.90;;;;;;5090986;28;20505;-69
2021/01/26 06:03:39;;;;;;;8.67;3.97;;;1.50;99.90;;;;;;5075137;27;20494;-70
2021/01/26 06:06:13;;;;;;;5.10;4.00;;;1.60;99.90;;;;;;5077554;28;20584;-69
2021/01/26 06:08:53;;;;;;;4.37;2.87;;;1.60;99.90;;;;;;5110804;27;20467;-69
2021/01/26 06:11:22;;;;;;;5.07;2.57;;;1.60;99.90;;;;;;5105933;28;20474;-69
2021/01/26 06:13:48;;;;;;;4.00;3.00;;;1.60;99.90;;;;;;5111233;27;20445;-70
2021/01/26 06:16:22;;;;;;;4.60;3.80;;;1.60;99.90;;;;;;5061513;28;20452;-70
2021/01/26 06:19:02;;;;;;;4.30;3.13;;;1.60;99.90;;;;;;5110789;28;20232;-70
2021/01/26 06:21:30;;;;;;;5.23;4.13;;;1.60;99.90;;;;;;5078557;28;20448;-70
2021/01/26 06:23:57;;;;;;;6.33;3.43;;;1.70;99.90;;;;;;5111384;27;20448;-70
2021/01/26 06:26:29;;;;;;;4.80;3.17;;;1.60;99.90;;;;;;5088032;28;20495;-70
2021/01/26 06:29:00;;;;;;;5.33;3.00;;;1.70;99.90;;;;;;5108496;27;20451;-67
2021/01/26 06:31:48;;;;;;;10.90;2.70;;;1.70;99.90;;;;;;5088712;28;20464;-71
2021/01/26 06:34:38;;;;;;;4.20;3.17;;;1.70;99.90;;;;;;5111493;28;20463;-67
2021/01/26 06:37:51;;;;;;;2.27;2.07;;;1.70;99.90;;;;;;5090898;28;20445;-68
2021/01/26 06:40:30;;;;;;;1.70;1.57;;;1.70;99.90;;;;;;5096960;28;20465;-69
2021/01/26 06:43:13;;;;;;;3.00;2.33;;;1.80;99.90;;;;;;5111145;27;20448;-68
2021/01/26 06:45:49;;;;;;;3.70;2.97;;;1.80;99.90;;;;;;5093600;27;20870;-69
2021/01/26 06:48:44;;;;;;;2.60;2.40;;;1.80;99.90;;;;;;5093937;28;20456;-69
2021/01/26 06:51:35;;;;;;;2.80;1.90;;;1.80;99.90;;;;;;5095546;28;20479;-68
2021/01/26 06:54:12;;;;;;;3.13;2.27;;;1.80;99.90;;;;;;5093460;28;20472;-69
2021/01/26 06:56:45;;;;;;;3.77;1.80;;;1.80;99.90;;;;;;5110438;27;20453;-68
2021/01/26 06:59:38;;;;;;;2.77;2.27;;;1.80;99.90;;;;;;5109515;28;20536;-67
2021/01/26 07:02:56;;;;;;;3.70;2.30;;;1.90;99.90;;;;;;5093403;28;20463;-68
2021/01/26 07:05:45;;;;;;;5.93;2.00;;;1.80;99.90;;;;;;5048853;28;20449;-68
2021/01/26 07:08:33;;;;;;;7.13;2.20;;;1.80;99.90;;;;;;5102181;28;20483;-69
2021/01/26 07:11:34;;;;;;;3.50;2.30;;;1.80;99.90;;;;;;5105168;27;20459;-67
2021/01/26 07:14:03;;;;;;;4.47;2.60;;;1.80;99.90;;;;;;5088488;28;20435;-68
2021/01/26 07:16:31;;;;;;;3.73;3.17;;;1.90;99.90;;;;;;5110923;28;20460;-68
2021/01/26 07:19:18;;;;;;;5.67;3.37;;;1.90;99.90;;;;;;5092820;27;20451;-67
2021/01/26 07:21:50;;;;;;;2.37;1.80;;;1.90;99.90;;;;;;5105235;27;20444;-68
2021/01/26 07:24:40;;;;;;;3.20;2.07;;;1.90;99.90;;;;;;5092673;28;20454;-67
2021/01/26 07:27:27;;;;;;;2.83;1.97;;;1.90;99.90;;;;;;5093157;28;20835;-68
2021/01/26 07:30:02;;;;;;;4.43;3.90;;;1.90;99.90;;;;;;5108566;27;20456;-67
2021/01/26 07:32:46;;;;;;;9.53;6.00;;;1.90;99.90;;;;;;5109723;28;20508;-67
2021/01/26 07:35:22;;;;;;;10.10;6.50;;;1.90;99.90;;;;;;5109391;28;20477;-69
2021/01/26 07:38:19;;;;;;;8.83;4.33;;;1.90;99.90;;;;;;5089323;28;20461;-68
2021/01/26 07:40:53;;;;;;;3.73;3.03;;;1.90;99.90;;;;;;5104356;27;20460;-68
2021/01/26 07:43:42;;;;;;;6.67;3.33;;;1.90;99.90;;;;;;5071919;28;20456;-69
2021/01/26 07:46:33;;;;;;;2.43;2.33;;;1.90;99.90;;;;;;5087363;28;20464;-69
2021/01/26 07:49:14;;;;;;;3.10;2.57;;;1.90;99.90;;;;;;5104148;28;20489;-67
2021/01/26 07:51:43;;;;;;;2.47;2.27;;;1.90;99.90;;;;;;5091270;28;20448;-67
2021/01/26 07:54:17;;;;;;;3.00;2.40;;;1.90;99.90;;;;;;5075910;28;20448;-69
2021/01/26 07:56:44;;;;;;;5.33;2.60;;;1.90;99.90;;;;;;5108934;27;20464;-69
2021/01/26 07:59:29;;;;;;;3.77;2.57;;;1.90;99.90;;;;;;5091640;28;20589;-68
2021/01/26 08:01:59;;;;;;;2.60;2.30;;;1.90;99.90;;;;;;5087686;28;20465;-67
2021/01/26 08:04:35;;;;;;;2.83;2.63;;;1.90;99.90;;;;;;5109660;28;20535;-69
2021/01/26 08:07:02;;;;;;;2.70;1.87;;;1.90;99.90;;;;;;5072035;28;20473;-69
2021/01/26 08:09:47;;;;;;;2.63;1.97;;;2.00;99.90;;;;;;5074326;28;20468;-68
2021/01/26 08:12:37;;;;;;;2.00;1.90;;;2.00;99.90;;;;;;5106950;28;20448;-68
2021/01/26 08:15:26;;;;;;;2.90;2.40;;;2.00;99.90;;;;;;5087210;28;20461;-68
2021/01/26 08:17:52;;;;;;;2.13;1.60;;;2.00;99.90;;;;;;5073830;27;21036;-69
2021/01/26 08:20:24;;;;;;;3.43;2.53;;;2.00;99.90;;;;;;5105181;28;20527;-68
2021/01/26 08:23:03;;;;;;;2.83;2.13;;;2.00;99.90;;;;;;5070194;28;20449;-67
2021/01/26 08:25:35;;;;;;;2.10;1.90;;;2.00;99.90;;;;;;5088268;28;20467;-67
2021/01/26 08:28:06;;;;;;;3.33;2.17;;;2.10;99.90;;;;;;5061184;28;20453;-68
2021/01/26 08:30:50;;;;;;;2.67;1.83;;;2.10;99.90;;;;;;5099845;28;20504;-69
2021/01/26 08:33:32;;;;;;;2.43;2.17;;;2.10;99.90;;;;;;5107387;28;20455;-69
2021/01/26 08:36:27;;;;;;;3.20;1.80;;;2.10;99.90;;;;;;5105293;27;20508;-69
2021/01/26 08:38:56;;;;;;;1.63;1.50;;;2.10;99.90;;;;;;5103909;27;20480;-69
2021/01/26 08:41:45;;;;;;;4.37;1.87;;;2.10;99.90;;;;;;5089086;28;20453;-69
2021/01/26 08:44:20;;;;;;;3.80;1.70;;;2.20;99.90;;;;;;5068871;28;20473;-68
2021/01/26 08:46:50;;;;;;;1.60;1.20;;;2.20;99.90;;;;;;5071178;28;20514;-67
2021/01/26 08:49:20;;;;;;;2.43;1.97;;;2.20;99.90;;;;;;5090063;28;20544;-67
2021/01/26 08:51:46;;;;;;;3.53;3.00;;;2.20;99.90;;;;;;5090496;28;20444;-67
2021/01/26 08:54:38;;;;;;;2.77;2.33;;;2.20;99.90;;;;;;5092404;28;20459;-69
2021/01/26 08:57:26;;;;;;;1.30;1.30;;;2.30;99.90;;;;;;5073040;28;20974;-69
2021/01/26 08:59:53;;;;;;;15.80;6.43;;;2.20;99.90;;;;;;5105869;27;20479;-69
2021/01/26 09:02:38;;;;;;;13.30;7.27;;;2.30;99.90;;;;;;5103876;28;20449;-68
2021/01/26 09:05:05;;;;;;;9.23;5.40;;;2.30;99.90;;;;;;5089456;28;20463;-68
2021/01/26 09:07:52;;;;;;;2.73;2.53;;;2.40;99.90;;;;;;5109769;28;20465;-69
2021/01/26 09:10:33;;;;;;;6.20;3.90;;;2.40;99.90;;;;;;5104743;28;20465;-68
2021/01/26 09:13:23;;;;;;;2.87;1.90;;;2.40;99.90;;;;;;5091828;27;20473;-68
2021/01/26 09:15:52;;;;;;;2.50;1.90;;;2.40;99.90;;;;;;5095243;27;20467;-69
2021/01/26 09:18:24;;;;;;;2.37;2.17;;;2.50;99.90;;;;;;5080589;28;20486;-69
2021/01/26 09:20:57;;;;;;;1.37;1.27;;;2.50;99.90;;;;;;5087406;27;20467;-67
2021/01/26 09:23:24;;;;;;;1.90;1.70;;;2.50;99.90;;;;;;5086464;28;20454;-70
2021/01/26 09:25:50;;;;;;;1.93;1.83;;;2.50;99.90;;;;;;5101636;28;20557;-68
2021/01/26 09:28:21;;;;;;;1.53;1.43;;;2.50;99.90;;;;;;5058836;28;20975;-68
2021/01/26 09:30:55;;;;;;;2.63;2.30;;;2.50;99.90;;;;;;5055388;28;20268;-69
2021/01/26 09:33:23;;;;;;;2.77;2.47;;;2.50;99.90;;;;;;5092145;28;20965;-69
2021/01/26 09:35:53;;;;;;;3.50;1.80;;;2.60;99.90;;;;;;5057262;28;20457;-69
2021/01/26 09:38:37;;;;;;;2.07;1.97;;;2.60;99.90;;;;;;5102192;28;20456;-68
2021/01/26 09:41:16;;;;;;;1.67;1.57;;;2.60;99.90;;;;;;5093600;28;20448;-68
2021/01/26 09:43:44;;;;;;;1.90;1.73;;;2.70;99.90;;;;;;5073060;27;21024;-68
2021/01/26 09:46:25;;;;;;;5.93;2.07;;;2.70;99.90;;;;;;5110304;28;20472;-67
2021/01/26 09:48:55;;;;;;;2.97;2.67;;;2.70;99.90;;;;;;5093935;28;20456;-68
2021/01/26 09:51:30;;;;;;;4.90;2.60;;;2.70;99.90;;;;;;5108824;28;20555;-68
2021/01/26 09:54:05;;;;;;;9.10;4.83;;;2.80;99.90;;;;;;5109375;27;20439;-69
2021/01/26 09:56:35;;;;;;;16.50;8.40;;;2.80;99.90;;;;;;5110011;28;20456;-68
2021/01/26 09:59:05;;;;;;;15.73;7.80;;;2.80;99.90;;;;;;5092505;28;20459;-68
2021/01/26 10:01:33;;;;;;;14.60;7.60;;;2.80;99.90;;;;;;5091934;28;20992;-68
2021/01/26 10:04:03;;;;;;;16.00;8.50;;;2.80;99.90;;;;;;5077934;27;20523;-68
2021/01/26 10:06:30;;;;;;;6.63;3.80;;;2.80;99.90;;;;;;5057811;28;20457;-68
2021/01/26 10:08:56;;;;;;;4.33;2.30;;;2.90;99.90;;;;;;5075359;28;20451;-68
2021/01/26 10:11:28;;;;;;;3.20;2.50;;;2.90;99.90;;;;;;5092179;28;20798;-68
2021/01/26 10:14:23;;;;;;;2.30;2.10;;;2.90;99.90;;;;;;5093774;28;20218;-68
2021/01/26 10:16:54;;;;;;;2.00;1.80;;;3.00;99.90;;;;;;5110991;28;20452;-69
2021/01/26 10:19:32;;;;;;;2.87;2.67;;;3.00;99.90;;;;;;5109179;28;20470;-68
2021/01/26 10:22:18;;;;;;;13.30;5.10;;;3.00;99.90;;;;;;5085597;28;20491;-68
2021/01/26 10:24:44;;;;;;;7.43;5.60;;;3.00;99.90;;;;;;5093172;27;20489;-67
2021/01/26 10:27:20;;;;;;;3.30;3.00;;;3.00;99.90;;;;;;5109831;28;20464;-69
2021/01/26 10:29:46;;;;;;;6.20;4.50;;;3.00;99.90;;;;;;5089546;28;20460;-68
2021/01/26 10:32:33;;;;;;;7.30;5.80;;;3.10;99.90;;;;;;5090371;28;20501;-68
2021/01/26 10:34:59;;;;;;;6.90;4.83;;;3.10;99.90;;;;;;5088148;28;20452;-69
2021/01/26 10:37:26;;;;;;;5.53;3.50;;;3.10;99.90;;;;;;5108936;28;20551;-67
2021/01/26 10:40:11;;;;;;;4.83;3.30;;;3.10;99.90;;;;;;5091765;28;20988;-69
2021/01/26 10:42:39;;;;;;;2.63;2.33;;;3.10;99.90;;;;;;5083273;28;20459;-68
2021/01/26 10:45:05;;;;;;;4.47;3.03;;;3.10;99.90;;;;;;5073756;28;20532;-68
2021/01/26 10:47:34;;;;;;;1.97;1.73;;;3.20;99.90;;;;;;5088883;28;20503;-67
2021/01/26 10:50:10;;;;;;;1.60;1.50;;;3.10;99.90;;;;;;5085157;28;20448;-69
2021/01/26 10:52:48;;;;;;;1.30;1.00;;;3.10;99.90;;;;;;5086269;27;20460;-68
2021/01/26 10:55:17;;;;;;;2.27;1.90;;;3.20;99.90;;;;;;5092573;28;20482;-69
2021/01/26 10:57:44;;;;;;;1.53;1.23;;;3.20;99.90;;;;;;5083042;28;20468;-69
2021/01/26 11:00:12;;;;;;;4.03;1.70;;;3.20;99.90;;;;;;5109306;28;20458;-68
2021/01/26 11:02:38;;;;;;;1.97;1.87;;;3.30;99.90;;;;;;5109196;27;20465;-69
2021/01/26 11:05:07;;;;;;;4.07;1.90;;;3.20;99.90;;;;;;5075921;28;20455;-67
2021/01/26 11:07:32;;;;;;;1.77;1.10;;;3.20;99.90;;;;;;5107854;28;20283;-68
2021/01/26 11:09:58;;;;;;;2.50;1.50;;;3.20;99.90;;;;;;5056424;28;20449;-68
2021/01/26 11:12:24;;;;;;;1.90;1.70;;;3.30;99.90;;;;;;5103897;28;20218;-68
2021/01/26 11:14:51;;;;;;;7.93;4.80;;;3.20;99.90;;;;;;5103922;28;20298;-67
2021/01/26 11:17:17;;;;;;;5.43;3.90;;;3.20;99.90;;;;;;5064611;28;20847;-68
2021/01/26 11:19:47;;;;;;;2.57;1.93;;;3.20;99.90;;;;;;5106852;28;21080;-68
2021/01/26 11:22:13;;;;;;;5.53;2.17;;;3.20;99.90;;;;;;5083820;28;20451;-67
2021/01/26 11:24:39;;;;;;;1.90;1.70;;;3.20;99.90;;;;;;5069392;28;20515;-68
2021/01/26 11:27:05;;;;;;;2.20;1.80;;;3.20;99.90;;;;;;5081321;28;21015;-67
2021/01/26 11:29:31;;;;;;;8.07;4.50;;;3.30;99.90;;;;;;5086043;28;20267;-67
2021/01/26 11:31:56;;;;;;;11.47;4.73;;;3.20;99.90;;;;;;5085917;28;20524;-67
2021/01/26 11:34:22;;;;;;;13.13;5.80;;;3.30;99.90;;;;;;5069962;28;20237;-67
2021/01/26 11:36:48;;;;;;;6.77;4.83;;;3.20;99.90;;;;;;5081268;28;20230;-67
2021/01/26 11:39:14;;;;;;;2.30;2.10;;;3.30;99.90;;;;;;5090215;28;20506;-68
2021/01/26 11:41:39;;;;;;;2.40;2.10;;;3.30;99.90;;;;;;5089447;28;20242;-68
2021/01/26 11:44:06;;;;;;;3.17;2.23;;;3.30;99.90;;;;;;5090042;28;20229;-67
2021/01/26 11:46:32;;;;;;;2.77;1.77;;;3.30;99.90;;;;;;5082829;28;20241;-68
2021/01/26 11:48:57;;;;;;;1.60;1.50;;;3.30;99.90;;;;;;5106394;28;20448;-69
2021/01/26 11:51:23;;;;;;;3.87;1.53;;;3.30;99.90;;;;;;5089822;28;20463;-67
2021/01/26 11:53:49;;;;;;;2.90;1.70;;;3.30;99.90;;;;;;5066400;28;20222;-67
2021/01/26 11:56:15;;;;;;;2.20;1.43;;;3.30;99.90;;;;;;5086569;28;20216;-67
2021/01/26 11:58:41;;;;;;;5.10;2.17;;;3.40;99.90;;;;;;5053206;28;20513;-67
2021/01/26 12:01:07;;;;;;;2.83;1.87;;;3.40;99.90;;;;;;5072141;28;20519;-67
2021/01/26 12:03:33;;;;;;;1.27;1.17;;;3.40;99.90;;;;;;5064650;28;20226;-67
2021/01/26 12:05:59;;;;;;;1.57;1.47;;;3.40;99.90;;;;;;5091280;27;20659;-67
2021/01/26 12:08:24;;;;;;;7.50;1.40;;;3.40;99.90;;;;;;5091636;28;20460;-67
2021/01/26 12:10:50;;;;;;;1.43;1.33;;;3.40;99.90;;;;;;5089484;27;20229;-67
2021/01/26 12:13:18;;;;;;;2.73;1.77;;;3.40;99.90;;;;;;5105766;28;20225;-68
2021/01/26 12:15:44;;;;;;;8.10;3.90;;;3.50;99.90;;;;;;5089041;27;20252;-67
2021/01/26 12:18:10;;;;;;;26.67;12.53;;;3.50;99.90;;;;;;5071470;28;20492;-67
2021/01/26 12:20:36;;;;;;;14.43;8.33;;;3.50;99.90;;;;;;5107495;28;20238;-68
2021/01/26 12:23:02;;;;;;;24.43;10.73;;;3.50;99.90;;;;;;5070189;28;20454;-66
2021/01/26 12:25:29;;;;;;;36.27;14.20;;;3.50;99.90;;;;;;5073306;28;20304;-67
2021/01/26 12:27:55;;;;;;;19.23;10.70;;;3.50;99.90;;;;;;5089557;28;20505;-67
2021/01/26 12:30:22;;;;;;;10.27;6.97;;;3.60;99.90;;;;;;5083436;28;20457;-67
2021/01/26 12:32:48;;;;;;;3.30;3.00;;;3.50;99.90;;;;;;5088997;28;20456;-67
2021/01/26 12:35:23;;;;;;;1.90;1.73;;;3.50;99.90;;;;;;5091127;28;20460;-67
2021/01/26 12:37:49;;;;;;;1.80;1.70;;;3.50;99.90;;;;;;5107274;28;20694;-69
2021/01/26 12:40:15;;;;;;;2.40;1.80;;;3.60;99.90;;;;;;5083469;28;20455;-67
2021/01/26 12:42:41;;;;;;;2.10;1.80;;;3.60;99.90;;;;;;5090481;28;20597;-67
2021/01/26 12:45:09;;;;;;;1.90;1.70;;;3.60;99.90;;;;;;5091366;28;20501;-67
2021/01/26 12:47:35;;;;;;;4.17;2.80;;;3.60;99.90;;;;;;5090422;28;20464;-68
2021/01/26 12:50:01;;;;;;;1.53;1.43;;;3.60;99.90;;;;;;5105309;28;21024;-67
2021/01/26 12:52:27;;;;;;;3.77;3.07;;;3.60;99.90;;;;;;5071534;28;20451;-67
2021/01/26 12:54:52;;;;;;;11.87;6.30;;;3.60;99.90;;;;;;5107336;27;20230;-67
2021/01/26 12:57:18;;;;;;;24.90;13.10;;;3.60;99.90;;;;;;5070584;28;20214;-67
2021/01/26 12:59:44;;;;;;;33.77;14.13;;;3.60;99.90;;;;;;5084737;28;20738;-67
2021/01/26 13:02:10;;;;;;;11.33;6.60;;;3.60;99.90;;;;;;5035177;28;20219;-68
2021/01/26 13:04:35;;;;;;;4.80;3.90;;;3.60;99.90;;;;;;5090602;28;20226;-68
2021/01/26 13:07:01;;;;;;;3.20;2.90;;;3.60;99.90;;;;;;5053285;28;20237;-67
2021/01/26 13:09:26;;;;;;;4.03;3.70;;;3.60;99.90;;;;;;5054020;28;20271;-68
2021/01/26 13:11:52;;;;;;;10.60;8.17;;;3.60;99.90;;;;;;5104631;28;20221;-67
2021/01/26 13:14:18;;;;;;;15.47;11.67;;;3.60;99.90;;;;;;5088741;28;20217;-67
2021/01/26 13:16:44;;;;;;;17.13;10.87;;;3.60;99.90;;;;;;5050720;28;20695;-68
2021/01/26 13:19:09;;;;;;;7.93;6.37;;;3.60;99.90;;;;;;5069053;28;20226;-67
2021/01/26 13:21:36;;;;;;;3.77;3.37;;;3.60;99.90;;;;;;5105189;28;20230;-68
2021/01/26 13:24:03;;;;;;;3.40;3.00;;;3.60;99.90;;;;;;5088995;28;20218;-67
2021/01/26 13:26:29;;;;;;;3.27;2.37;;;3.60;99.90;;;;;;5087176;28;20515;-67
2021/01/26 13:28:55;;;;;;;2.83;2.47;;;3.60;99.90;;;;;;5087391;27;20543;-67